Time;durP1;ratioP1;P1;durP2;ratioP2;P2;SDS_P1;SDS_P2;PMS_P1;PMS_P2;Temp;Humidity;BMP_temperature;BMP_pressure;BME280_temperature;BME280_humidity;BME280_pressure;Samples;Min_cycle;Max_cycle;Signal;HPM_P1;HPM_P2
2023/07/31 00:00:50;;;;;;;5.35;2.15;;;;;;;;;;5008439;28;20049;-74
2023/07/31 00:03:16;;;;;;;8.10;2.88;;;;;;;;;;5013525;28;20493;-74
2023/07/31 00:05:42;;;;;;;6.65;2.25;;;;;;;;;;5012644;28;20402;-74
2023/07/31 00:08:08;;;;;;;4.13;2.20;;;;;;;;;;5013415;28;20092;-74
2023/07/31 00:10:34;;;;;;;7.78;2.50;;;;;;;;;;5013285;28;20180;-74
2023/07/31 00:13:00;;;;;;;4.65;2.30;;;;;;;;;;5012264;28;20041;-74
2023/07/31 00:15:26;;;;;;;9.93;2.83;;;;;;;;;;5013441;28;20045;-74
2023/07/31 00:17:52;;;;;;;7.30;2.63;;;;;;;;;;5008551;28;20057;-74
2023/07/31 00:20:18;;;;;;;8.05;2.70;;;;;;;;;;5013828;28;20046;-74
2023/07/31 00:22:44;;;;;;;6.85;2.33;;;;;;;;;;5012583;28;20146;-75
2023/07/31 00:25:10;;;;;;;9.90;3.47;;;;;;;;;;5010901;28;20069;-74
2023/07/31 00:27:36;;;;;;;9.23;2.63;;;;;;;;;;5015952;28;20595;-74
2023/07/31 00:30:02;;;;;;;10.70;2.80;;;;;;;;;;5016028;28;20481;-74
2023/07/31 00:32:28;;;;;;;8.68;3.08;;;;;;;;;;5004043;28;20398;-74
2023/07/31 00:34:54;;;;;;;9.30;2.83;;;;;;;;;;4986205;28;20053;-75
2023/07/31 00:37:21;;;;;;;8.73;2.88;;;;;;;;;;5006395;28;20042;-74
2023/07/31 00:39:47;;;;;;;9.05;2.63;;;;;;;;;;5006927;28;20037;-74
2023/07/31 00:42:13;;;;;;;12.15;2.97;;;;;;;;;;4991472;28;20068;-74
2023/07/31 00:44:39;;;;;;;5.70;2.80;;;;;;;;;;5000077;28;20065;-75
2023/07/31 00:47:05;;;;;;;9.63;2.70;;;;;;;;;;5004540;28;20058;-75
2023/07/31 00:49:31;;;;;;;3.35;2.17;;;;;;;;;;4988302;28;20061;-74
2023/07/31 00:51:57;;;;;;;3.95;2.22;;;;;;;;;;4990434;28;20424;-75
2023/07/31 00:54:24;;;;;;;4.43;2.03;;;;;;;;;;4997319;28;20104;-75
2023/07/31 00:56:51;;;;;;;3.17;2.10;;;;;;;;;;4981725;28;20073;-75
2023/07/31 00:59:18;;;;;;;3.78;2.05;;;;;;;;;;4980475;28;20050;-75
2023/07/31 01:01:45;;;;;;;4.35;2.22;;;;;;;;;;4986032;28;20073;-75
2023/07/31 01:04:12;;;;;;;4.60;2.10;;;;;;;;;;4990444;28;20509;-75
2023/07/31 01:06:41;;;;;;;6.15;2.25;;;;;;;;;;5021548;28;20485;-74
2023/07/31 01:09:12;;;;;;;6.13;2.30;;;;;;;;;;5011983;28;20050;-74
2023/07/31 01:11:52;;;;;;;5.63;2.28;;;;;;;;;;4997940;28;20049;-74
2023/07/31 01:14:18;;;;;;;8.10;2.30;;;;;;;;;;5015443;28;20057;-75
2023/07/31 01:16:44;;;;;;;3.92;2.22;;;;;;;;;;5014455;28;20120;-75
2023/07/31 01:19:11;;;;;;;6.47;2.33;;;;;;;;;;4993992;28;20054;-74
2023/07/31 01:21:56;;;;;;;7.45;2.35;;;;;;;;;;4999173;28;20100;-75
2023/07/31 01:24:25;;;;;;;3.45;2.05;;;;;;;;;;4993558;28;20081;-74
2023/07/31 01:27:10;;;;;;;7.72;2.35;;;;;;;;;;5016046;28;20099;-74
2023/07/31 01:29:36;;;;;;;3.20;2.20;;;;;;;;;;5014712;28;20513;-74
2023/07/31 01:32:03;;;;;;;7.65;2.40;;;;;;;;;;4997323;28;20076;-75
2023/07/31 01:34:30;;;;;;;6.45;2.85;;;;;;;;;;5003953;28;20061;-74
2023/07/31 01:36:59;;;;;;;5.93;2.00;;;;;;;;;;4983015;28;20133;-74
2023/07/31 01:39:25;;;;;;;7.22;2.70;;;;;;;;;;4985391;28;20668;-74
2023/07/31 01:41:52;;;;;;;8.65;2.50;;;;;;;;;;4990906;28;20050;-75
2023/07/31 01:44:21;;;;;;;6.38;2.50;;;;;;;;;;4982876;28;20493;-74
2023/07/31 01:46:47;;;;;;;4.40;2.50;;;;;;;;;;4988747;28;20131;-74
2023/07/31 01:49:13;;;;;;;8.70;2.47;;;;;;;;;;4988385;28;20121;-74
2023/07/31 01:51:39;;;;;;;6.68;2.55;;;;;;;;;;4985908;28;20526;-74
2023/07/31 01:54:05;;;;;;;6.13;2.63;;;;;;;;;;4995986;28;20056;-74
2023/07/31 01:56:31;;;;;;;8.68;2.53;;;;;;;;;;5011623;28;20397;-74
2023/07/31 01:58:57;;;;;;;7.18;2.38;;;;;;;;;;4996236;28;20470;-74
2023/07/31 02:01:23;;;;;;;3.90;2.00;;;;;;;;;;5002344;28;20081;-74
2023/07/31 02:03:49;;;;;;;8.23;2.40;;;;;;;;;;4990949;28;20052;-74
2023/07/31 02:06:15;;;;;;;6.45;2.47;;;;;;;;;;5000137;28;20045;-74
2023/07/31 02:08:41;;;;;;;5.05;2.30;;;;;;;;;;5031344;28;20049;-74
2023/07/31 02:11:07;;;;;;;2.90;1.95;;;;;;;;;;5014297;28;20128;-74
2023/07/31 02:13:33;;;;;;;5.13;2.25;;;;;;;;;;4992719;28;20050;-74
2023/07/31 02:15:59;;;;;;;3.53;2.17;;;;;;;;;;5023150;28;20041;-74
2023/07/31 02:18:26;;;;;;;4.70;2.40;;;;;;;;;;4998288;28;20065;-73
2023/07/31 02:20:52;;;;;;;4.13;2.30;;;;;;;;;;4995666;28;20042;-73
2023/07/31 02:23:21;;;;;;;4.80;2.70;;;;;;;;;;5021770;28;20061;-74
2023/07/31 02:25:47;;;;;;;5.55;2.10;;;;;;;;;;4992920;28;20794;-73
2023/07/31 02:28:13;;;;;;;6.50;1.98;;;;;;;;;;5001214;28;20049;-74
2023/07/31 02:30:39;;;;;;;4.90;1.83;;;;;;;;;;5008311;28;20056;-73
2023/07/31 02:33:05;;;;;;;2.50;1.50;;;;;;;;;;5001235;28;20112;-73
2023/07/31 02:35:32;;;;;;;9.07;1.80;;;;;;;;;;5001059;28;20049;-73
2023/07/31 02:37:58;;;;;;;2.75;1.80;;;;;;;;;;5000914;28;20068;-74
2023/07/31 02:40:24;;;;;;;5.40;1.90;;;;;;;;;;5008698;28;20493;-73
2023/07/31 02:42:50;;;;;;;3.63;1.77;;;;;;;;;;5001026;28;20049;-73
2023/07/31 02:45:16;;;;;;;7.40;1.95;;;;;;;;;;5001532;28;20041;-73
2023/07/31 02:47:42;;;;;;;3.50;1.55;;;;;;;;;;5009109;28;20034;-73
2023/07/31 02:50:08;;;;;;;4.30;1.70;;;;;;;;;;5007972;28;20092;-73
2023/07/31 02:52:34;;;;;;;3.13;1.50;;;;;;;;;;4999406;28;20034;-73
2023/07/31 02:55:01;;;;;;;1.92;1.40;;;;;;;;;;5002836;28;20129;-73
2023/07/31 02:57:27;;;;;;;5.38;1.60;;;;;;;;;;5002811;28;20042;-73
2023/07/31 02:59:53;;;;;;;3.30;1.90;;;;;;;;;;5005019;28;20049;-73
2023/07/31 03:02:19;;;;;;;6.18;2.30;;;;;;;;;;5004921;28;20513;-73
2023/07/31 03:04:45;;;;;;;6.35;2.00;;;;;;;;;;5002642;28;20046;-73
2023/07/31 03:07:11;;;;;;;9.00;2.15;;;;;;;;;;5004144;28;20046;-73
2023/07/31 03:09:37;;;;;;;3.33;2.13;;;;;;;;;;4998876;28;20128;-73
2023/07/31 03:12:03;;;;;;;4.28;2.10;;;;;;;;;;4998055;28;20493;-73
2023/07/31 03:14:29;;;;;;;10.52;2.45;;;;;;;;;;5004741;28;20042;-73
2023/07/31 03:16:55;;;;;;;8.10;2.75;;;;;;;;;;4998927;28;20043;-73
2023/07/31 03:19:21;;;;;;;8.18;3.00;;;;;;;;;;5006720;28;20073;-73
2023/07/31 03:21:47;;;;;;;11.13;3.80;;;;;;;;;;5001344;28;20042;-73
2023/07/31 03:24:13;;;;;;;9.85;3.58;;;;;;;;;;5002640;28;20057;-73
2023/07/31 03:26:41;;;;;;;11.07;4.20;;;;;;;;;;4995322;28;20050;-73
2023/07/31 03:29:07;;;;;;;13.55;3.78;;;;;;;;;;5005786;28;20085;-73
2023/07/31 03:31:33;;;;;;;12.23;4.68;;;;;;;;;;5009246;28;20053;-73
2023/07/31 03:33:59;;;;;;;10.80;4.90;;;;;;;;;;5008259;28;20156;-73
2023/07/31 03:36:25;;;;;;;17.60;5.20;;;;;;;;;;4997035;28;20093;-73
2023/07/31 03:38:52;;;;;;;16.42;5.72;;;;;;;;;;5000177;28;20489;-73
2023/07/31 03:41:18;;;;;;;18.45;6.13;;;;;;;;;;5009002;28;20045;-73
2023/07/31 03:43:46;;;;;;;13.00;5.97;;;;;;;;;;5002472;28;20053;-74
2023/07/31 03:46:12;;;;;;;12.80;5.53;;;;;;;;;;5010922;28;20088;-73
2023/07/31 03:48:38;;;;;;;13.57;5.55;;;;;;;;;;5000394;28;20038;-74
2023/07/31 03:51:04;;;;;;;15.85;5.82;;;;;;;;;;5005190;28;20209;-74
2023/07/31 03:53:30;;;;;;;15.43;5.78;;;;;;;;;;5007362;28;20054;-73
2023/07/31 03:55:56;;;;;;;13.73;5.38;;;;;;;;;;5008143;28;20453;-73
2023/07/31 03:58:22;;;;;;;13.30;4.80;;;;;;;;;;5005470;28;20053;-73
2023/07/31 04:00:48;;;;;;;14.02;6.22;;;;;;;;;;5009488;28;20045;-74
2023/07/31 04:03:14;;;;;;;11.70;4.88;;;;;;;;;;5011054;28;20128;-73
2023/07/31 04:05:40;;;;;;;12.75;5.22;;;;;;;;;;4995670;28;20100;-74
2023/07/31 04:08:06;;;;;;;14.25;5.35;;;;;;;;;;5008184;28;20120;-73
2023/07/31 04:10:33;;;;;;;15.80;5.80;;;;;;;;;;5012703;28;20444;-73
2023/07/31 04:13:00;;;;;;;17.67;6.10;;;;;;;;;;5011381;28;20046;-73
2023/07/31 04:15:26;;;;;;;17.60;6.57;;;;;;;;;;5008846;28;20132;-74
2023/07/31 04:17:52;;;;;;;13.45;6.20;;;;;;;;;;5013219;28;20065;-73
2023/07/31 04:20:18;;;;;;;23.20;5.75;;;;;;;;;;5009882;28;20777;-73
2023/07/31 04:22:44;;;;;;;18.50;6.57;;;;;;;;;;5012056;28;20046;-73
2023/07/31 04:25:10;;;;;;;26.23;6.05;;;;;;;;;;5011386;28;20053;-73
2023/07/31 04:27:36;;;;;;;17.35;5.88;;;;;;;;;;5009963;28;20050;-73
2023/07/31 04:30:03;;;;;;;29.10;6.93;;;;;;;;;;5009236;28;20478;-73
2023/07/31 04:32:29;;;;;;;19.42;6.25;;;;;;;;;;5005589;28;20061;-73
2023/07/31 04:34:55;;;;;;;21.90;6.57;;;;;;;;;;4996492;28;20044;-73
2023/07/31 04:37:21;;;;;;;25.63;7.90;;;;;;;;;;5005297;28;20048;-73
2023/07/31 04:39:48;;;;;;;28.80;8.80;;;;;;;;;;5004895;28;20049;-73
2023/07/31 04:42:14;;;;;;;31.70;10.27;;;;;;;;;;5004855;28;20066;-73
2023/07/31 04:44:40;;;;;;;24.67;8.45;;;;;;;;;;4994447;28;20108;-73
2023/07/31 04:47:06;;;;;;;32.75;10.60;;;;;;;;;;4996808;28;20056;-73
2023/07/31 04:49:33;;;;;;;38.92;9.90;;;;;;;;;;4999142;28;20073;-73
2023/07/31 04:51:59;;;;;;;22.67;7.65;;;;;;;;;;5009931;28;20497;-73
2023/07/31 04:54:25;;;;;;;19.63;7.50;;;;;;;;;;5006262;28;20585;-73
2023/07/31 04:56:52;;;;;;;15.95;6.30;;;;;;;;;;5004828;28;20152;-73
2023/07/31 04:59:18;;;;;;;15.18;6.00;;;;;;;;;;5007219;28;20133;-73
2023/07/31 05:01:47;;;;;;;15.82;5.82;;;;;;;;;;5004983;28;20041;-73
2023/07/31 05:04:14;;;;;;;18.90;7.18;;;;;;;;;;5001541;28;20080;-73
2023/07/31 05:06:40;;;;;;;18.27;6.72;;;;;;;;;;5000219;28;20813;-73
2023/07/31 05:09:06;;;;;;;11.82;4.53;;;;;;;;;;5005793;28;20152;-73
2023/07/31 05:11:32;;;;;;;13.18;5.50;;;;;;;;;;5006116;28;20124;-73
2023/07/31 05:13:58;;;;;;;14.65;6.05;;;;;;;;;;5006921;28;20065;-73
2023/07/31 05:16:24;;;;;;;13.95;5.75;;;;;;;;;;4997280;28;20046;-74
2023/07/31 05:18:50;;;;;;;15.35;5.70;;;;;;;;;;5002132;28;20121;-73
2023/07/31 05:21:16;;;;;;;17.60;6.22;;;;;;;;;;5010206;28;20042;-73
2023/07/31 05:23:42;;;;;;;14.25;4.80;;;;;;;;;;5018383;28;20049;-74
2023/07/31 05:26:09;;;;;;;15.55;5.45;;;;;;;;;;4993183;28;20107;-73
2023/07/31 05:28:36;;;;;;;10.98;4.80;;;;;;;;;;5007925;28;20085;-73
2023/07/31 05:31:02;;;;;;;10.65;3.97;;;;;;;;;;4995207;28;20042;-73
2023/07/31 05:33:28;;;;;;;10.30;5.00;;;;;;;;;;5007956;28;20129;-73
2023/07/31 05:35:54;;;;;;;12.20;4.80;;;;;;;;;;4997594;28;20053;-73
2023/07/31 05:38:21;;;;;;;14.38;5.45;;;;;;;;;;5009567;28;20049;-73
2023/07/31 05:40:47;;;;;;;12.32;4.50;;;;;;;;;;5005222;28;20084;-74
2023/07/31 05:43:13;;;;;;;15.63;4.95;;;;;;;;;;5006961;28;20191;-73
2023/07/31 05:45:40;;;;;;;15.05;4.53;;;;;;;;;;5005684;28;20080;-73
2023/07/31 05:48:06;;;;;;;12.68;4.53;;;;;;;;;;5004837;28;20045;-74
2023/07/31 05:50:32;;;;;;;16.20;4.35;;;;;;;;;;5011344;28;20048;-73
2023/07/31 05:52:58;;;;;;;9.63;4.57;;;;;;;;;;4999358;28;20448;-73
2023/07/31 05:55:26;;;;;;;11.52;4.07;;;;;;;;;;5003549;28;20046;-73
2023/07/31 05:57:53;;;;;;;11.60;4.18;;;;;;;;;;5008070;28;20077;-73
2023/07/31 06:00:19;;;;;;;13.25;5.28;;;;;;;;;;5001952;28;20054;-73
2023/07/31 06:02:45;;;;;;;13.60;5.20;;;;;;;;;;5009239;28;20394;-73
2023/07/31 06:05:11;;;;;;;10.43;4.60;;;;;;;;;;5012122;28;20042;-73
2023/07/31 06:07:37;;;;;;;12.90;4.55;;;;;;;;;;5009731;28;20053;-73
2023/07/31 06:10:05;;;;;;;11.70;4.32;;;;;;;;;;5009305;28;20108;-73
2023/07/31 06:12:34;;;;;;;23.27;8.65;;;;;;;;;;5006396;28;20135;-73
2023/07/31 06:15:01;;;;;;;10.93;4.05;;;;;;;;;;5004348;28;20058;-73
2023/07/31 06:17:27;;;;;;;13.13;4.30;;;;;;;;;;5009611;28;20074;-72
2023/07/31 06:19:53;;;;;;;12.57;2.97;;;;;;;;;;5010315;28;20373;-73
2023/07/31 06:22:19;;;;;;;5.18;2.10;;;;;;;;;;5011265;28;20042;-72
2023/07/31 06:24:45;;;;;;;4.95;2.50;;;;;;;;;;5011757;28;20133;-73
2023/07/31 06:27:11;;;;;;;11.32;3.20;;;;;;;;;;5008507;28;20165;-72
2023/07/31 06:29:37;;;;;;;11.27;3.15;;;;;;;;;;5008527;28;20058;-73
2023/07/31 06:32:04;;;;;;;10.18;2.92;;;;;;;;;;5007178;28;20042;-73
2023/07/31 06:34:30;;;;;;;8.05;3.30;;;;;;;;;;5004141;28;20050;-73
2023/07/31 06:36:57;;;;;;;8.65;3.08;;;;;;;;;;4997874;28;20065;-73
2023/07/31 06:39:23;;;;;;;9.02;3.33;;;;;;;;;;4994967;28;20050;-73
2023/07/31 06:41:49;;;;;;;5.60;3.05;;;;;;;;;;5004241;28;20046;-73
2023/07/31 06:44:15;;;;;;;9.48;2.90;;;;;;;;;;5008152;28;20058;-73
2023/07/31 06:46:41;;;;;;;8.18;2.75;;;;;;;;;;5008406;28;20046;-73
2023/07/31 06:49:07;;;;;;;7.47;2.78;;;;;;;;;;5003860;28;20057;-73
2023/07/31 06:51:33;;;;;;;9.52;3.58;;;;;;;;;;5003204;28;20049;-73
2023/07/31 06:53:59;;;;;;;8.98;3.42;;;;;;;;;;5004925;28;20042;-72
2023/07/31 06:56:26;;;;;;;7.35;2.90;;;;;;;;;;5006160;28;20046;-72
2023/07/31 06:58:52;;;;;;;6.45;3.15;;;;;;;;;;5007660;28;20083;-73
2023/07/31 07:01:18;;;;;;;5.45;2.35;;;;;;;;;;5002778;28;20038;-73
2023/07/31 07:03:44;;;;;;;5.20;2.17;;;;;;;;;;5006083;28;20053;-73
2023/07/31 07:06:10;;;;;;;9.02;2.60;;;;;;;;;;5008344;28;20482;-73
2023/07/31 07:08:37;;;;;;;6.20;2.17;;;;;;;;;;5009888;28;20536;-73
2023/07/31 07:11:03;;;;;;;5.40;2.20;;;;;;;;;;5010404;28;20131;-73
2023/07/31 07:13:29;;;;;;;7.40;2.25;;;;;;;;;;5014077;28;20147;-72
2023/07/31 07:15:55;;;;;;;5.97;2.15;;;;;;;;;;5009567;28;20068;-72
2023/07/31 07:18:21;;;;;;;11.73;2.50;;;;;;;;;;5011878;28;20061;-73
2023/07/31 07:20:51;;;;;;;5.38;2.00;;;;;;;;;;5012551;28;20049;-72
2023/07/31 07:23:17;;;;;;;5.25;2.00;;;;;;;;;;5013617;28;20072;-73
2023/07/31 07:25:44;;;;;;;9.43;2.20;;;;;;;;;;5012895;28;20072;-73
2023/07/31 07:28:10;;;;;;;5.43;2.03;;;;;;;;;;5006739;28;20050;-73
2023/07/31 07:30:36;;;;;;;6.90;1.98;;;;;;;;;;5007902;28;20045;-73
2023/07/31 07:33:03;;;;;;;6.43;1.73;;;;;;;;;;5013819;28;20042;-73
2023/07/31 07:35:29;;;;;;;3.90;1.77;;;;;;;;;;5009791;28;20056;-72
2023/07/31 07:37:55;;;;;;;4.72;1.88;;;;;;;;;;5029197;28;20050;-73
2023/07/31 07:40:21;;;;;;;5.82;1.80;;;;;;;;;;5012958;28;20042;-72
2023/07/31 07:42:47;;;;;;;8.30;2.35;;;;;;;;;;5013453;28;20058;-72
2023/07/31 07:45:13;;;;;;;6.05;2.00;;;;;;;;;;5012077;28;20562;-73
2023/07/31 07:47:41;;;;;;;6.30;2.42;;;;;;;;;;5013152;28;20061;-72
2023/07/31 07:50:07;;;;;;;8.82;2.30;;;;;;;;;;5011809;28;20105;-72
2023/07/31 07:52:33;;;;;;;5.03;1.92;;;;;;;;;;5013091;28;20363;-73
2023/07/31 07:55:00;;;;;;;7.85;2.38;;;;;;;;;;5014572;28;20107;-72
2023/07/31 07:57:26;;;;;;;8.23;2.78;;;;;;;;;;5012455;28;20049;-72
2023/07/31 07:59:52;;;;;;;7.20;2.13;;;;;;;;;;5012550;28;20113;-73
2023/07/31 08:02:18;;;;;;;7.50;2.15;;;;;;;;;;5011335;28;20058;-73
2023/07/31 08:04:44;;;;;;;6.18;2.40;;;;;;;;;;5010695;28;20050;-73
2023/07/31 08:07:13;;;;;;;4.80;2.17;;;;;;;;;;5008328;28;20038;-73
2023/07/31 08:09:40;;;;;;;4.70;2.03;;;;;;;;;;5012794;28;20054;-72
2023/07/31 08:12:06;;;;;;;5.55;1.92;;;;;;;;;;5014460;28;20481;-73
2023/07/31 08:14:32;;;;;;;6.03;2.22;;;;;;;;;;5026583;28;20045;-73
2023/07/31 08:16:58;;;;;;;5.75;1.90;;;;;;;;;;5011488;28;20045;-73
2023/07/31 08:19:24;;;;;;;5.38;2.08;;;;;;;;;;5010373;28;20485;-74
2023/07/31 08:21:50;;;;;;;4.75;2.30;;;;;;;;;;5012036;28;20103;-74
2023/07/31 08:24:16;;;;;;;4.10;2.13;;;;;;;;;;5009908;28;20070;-73
2023/07/31 08:26:42;;;;;;;7.57;4.00;;;;;;;;;;5012621;28;20042;-73
2023/07/31 08:29:08;;;;;;;4.25;2.13;;;;;;;;;;5021501;28;20090;-73
2023/07/31 08:31:34;;;;;;;4.85;2.10;;;;;;;;;;5020330;28;20100;-73
2023/07/31 08:34:01;;;;;;;5.32;2.00;;;;;;;;;;5011568;28;20401;-73
2023/07/31 08:36:27;;;;;;;7.20;2.10;;;;;;;;;;4996123;28;20046;-73
2023/07/31 08:38:53;;;;;;;7.00;1.95;;;;;;;;;;4994318;28;20098;-73
2023/07/31 08:41:19;;;;;;;6.75;1.85;;;;;;;;;;5013950;28;20131;-73
2023/07/31 08:43:50;;;;;;;8.25;1.90;;;;;;;;;;5012391;28;20450;-74
2023/07/31 08:46:16;;;;;;;4.38;1.65;;;;;;;;;;5012122;28;20049;-74
2023/07/31 08:48:44;;;;;;;2.35;1.48;;;;;;;;;;5009436;28;20406;-73
2023/07/31 08:51:10;;;;;;;5.70;1.90;;;;;;;;;;4994683;28;20064;-74
2023/07/31 08:53:36;;;;;;;5.57;2.10;;;;;;;;;;5010647;28;20129;-73
2023/07/31 08:56:02;;;;;;;6.85;2.15;;;;;;;;;;4993914;28;20501;-73
2023/07/31 08:58:31;;;;;;;3.92;2.10;;;;;;;;;;4998024;28;20080;-73
2023/07/31 09:00:57;;;;;;;8.02;2.08;;;;;;;;;;5000038;28;20046;-73
2023/07/31 09:03:25;;;;;;;7.15;2.20;;;;;;;;;;4994382;28;20053;-74
2023/07/31 09:05:51;;;;;;;4.63;2.40;;;;;;;;;;5013223;28;20052;-74
2023/07/31 09:08:21;;;;;;;6.45;2.70;;;;;;;;;;5008649;28;20056;-73
2023/07/31 09:10:47;;;;;;;8.85;2.60;;;;;;;;;;4999525;28;20052;-74
2023/07/31 09:13:16;;;;;;;4.28;2.28;;;;;;;;;;5023528;28;20073;-74
2023/07/31 09:15:46;;;;;;;5.13;2.35;;;;;;;;;;5004889;28;20045;-74
2023/07/31 09:18:17;;;;;;;10.43;3.00;;;;;;;;;;5006468;28;20088;-74
2023/07/31 09:20:43;;;;;;;9.13;3.13;;;;;;;;;;4991653;28;20080;-75
2023/07/31 09:23:10;;;;;;;9.55;2.97;;;;;;;;;;5022309;28;20042;-75
2023/07/31 09:25:36;;;;;;;8.93;2.90;;;;;;;;;;5014986;28;20042;-75
2023/07/31 09:28:06;;;;;;;6.30;2.50;;;;;;;;;;4998634;28;20108;-75
2023/07/31 09:30:43;;;;;;;4.72;2.40;;;;;;;;;;5010649;28;20556;-74
2023/07/31 09:33:09;;;;;;;6.85;2.60;;;;;;;;;;5007002;28;20060;-74
2023/07/31 09:35:40;;;;;;;7.03;2.70;;;;;;;;;;5004635;28;20045;-74
2023/07/31 09:38:10;;;;;;;7.93;2.30;;;;;;;;;;5011131;28;20046;-74
2023/07/31 09:40:38;;;;;;;5.60;2.50;;;;;;;;;;5011288;28;20123;-75
2023/07/31 09:43:05;;;;;;;6.68;2.53;;;;;;;;;;5010679;28;20133;-75
2023/07/31 09:45:38;;;;;;;7.25;2.47;;;;;;;;;;5011701;28;20073;-75
2023/07/31 09:48:04;;;;;;;;;;;;;;;;;;5011303;28;20038;-75
2023/07/31 09:50:31;;;;;;;8.55;2.72;;;;;;;;;;5002114;28;19928;-75
2023/07/31 09:52:57;;;;;;;8.13;2.72;;;;;;;;;;5009592;28;20075;-75
2023/07/31 09:55:23;;;;;;;6.93;2.50;;;;;;;;;;5008083;28;20089;-75
2023/07/31 09:57:49;;;;;;;5.63;2.20;;;;;;;;;;5007867;28;20553;-75
2023/07/31 10:00:16;;;;;;;6.32;2.58;;;;;;;;;;5007523;28;20050;-75
2023/07/31 10:02:43;;;;;;;4.93;2.20;;;;;;;;;;4996990;28;20085;-75
2023/07/31 10:05:13;;;;;;;5.00;1.80;;;;;;;;;;5006673;28;20049;-75
2023/07/31 10:07:40;;;;;;;6.38;2.15;;;;;;;;;;5008514;28;20074;-75
2023/07/31 10:10:07;;;;;;;6.47;2.30;;;;;;;;;;5008513;28;20045;-75
2023/07/31 10:12:34;;;;;;;4.68;2.20;;;;;;;;;;5009486;28;20367;-75
2023/07/31 10:15:01;;;;;;;6.78;2.30;;;;;;;;;;5008852;28;20045;-75
2023/07/31 10:17:27;;;;;;;3.60;2.05;;;;;;;;;;5011042;28;20037;-76
2023/07/31 10:19:57;;;;;;;6.32;2.55;;;;;;;;;;5008357;28;20156;-75
2023/07/31 10:22:23;;;;;;;7.28;2.38;;;;;;;;;;5007611;28;20398;-75
2023/07/31 10:24:50;;;;;;;5.68;2.40;;;;;;;;;;5008618;28;20058;-75
2023/07/31 10:27:16;;;;;;;6.78;2.25;;;;;;;;;;5009240;28;20643;-75
2023/07/31 10:29:44;;;;;;;5.50;2.63;;;;;;;;;;5008341;28;20453;-75
2023/07/31 10:32:12;;;;;;;6.45;3.10;;;;;;;;;;5011061;28;20065;-75
2023/07/31 10:34:39;;;;;;;7.78;2.90;;;;;;;;;;5009135;28;20090;-75
2023/07/31 10:37:24;;;;;;;10.70;3.17;;;;;;;;;;5003269;28;20553;-75
2023/07/31 10:40:16;;;;;;;8.13;2.90;;;;;;;;;;5005286;28;20096;-75
2023/07/31 10:42:47;;;;;;;9.60;2.80;;;;;;;;;;4995842;28;20049;-75
2023/07/31 10:45:13;;;;;;;7.32;2.58;;;;;;;;;;5005638;28;20054;-75
2023/07/31 10:47:46;;;;;;;7.22;2.53;;;;;;;;;;5013055;28;20046;-75
2023/07/31 10:50:12;;;;;;;8.85;2.55;;;;;;;;;;5010626;28;20052;-75
2023/07/31 10:52:38;;;;;;;12.57;5.85;;;;;;;;;;5011475;28;20694;-76
2023/07/31 10:55:22;;;;;;;8.00;3.03;;;;;;;;;;5008098;28;20604;-75
2023/07/31 10:57:48;;;;;;;6.47;2.80;;;;;;;;;;5011614;28;20092;-75
2023/07/31 11:00:24;;;;;;;6.63;2.22;;;;;;;;;;5005719;28;20069;-75
2023/07/31 11:02:59;;;;;;;3.92;2.00;;;;;;;;;;5009231;28;20508;-75
2023/07/31 11:05:43;;;;;;;9.57;2.50;;;;;;;;;;5012433;28;20457;-75
2023/07/31 11:08:24;;;;;;;4.68;2.08;;;;;;;;;;5011247;28;20049;-75
2023/07/31 11:11:02;;;;;;;6.15;2.10;;;;;;;;;;5009818;28;20046;-75
2023/07/31 11:13:33;;;;;;;5.63;2.90;;;;;;;;;;5014193;28;20050;-75
2023/07/31 11:15:59;;;;;;;9.05;2.42;;;;;;;;;;5010744;28;20458;-75
2023/07/31 11:18:26;;;;;;;5.28;2.40;;;;;;;;;;5011224;28;20081;-74
2023/07/31 11:20:53;;;;;;;8.30;2.72;;;;;;;;;;5013304;28;20046;-75
2023/07/31 11:23:19;;;;;;;8.85;3.72;;;;;;;;;;5011830;28;20559;-75
2023/07/31 11:25:46;;;;;;;6.53;3.00;;;;;;;;;;5012507;28;20045;-75
2023/07/31 11:28:13;;;;;;;6.47;3.45;;;;;;;;;;4995056;28;20055;-75
2023/07/31 11:30:40;;;;;;;11.75;3.45;;;;;;;;;;4980096;28;20093;-74
2023/07/31 11:33:07;;;;;;;11.20;3.40;;;;;;;;;;4975885;28;20459;-75
2023/07/31 11:35:34;;;;;;;9.20;3.45;;;;;;;;;;4977456;28;20062;-74
2023/07/31 11:38:00;;;;;;;8.88;3.65;;;;;;;;;;4992371;28;20402;-75
2023/07/31 11:40:29;;;;;;;9.38;3.22;;;;;;;;;;4992396;28;20062;-75
2023/07/31 11:42:59;;;;;;;8.95;3.08;;;;;;;;;;4986994;28;20046;-75
2023/07/31 11:45:29;;;;;;;9.93;3.55;;;;;;;;;;4981570;28;20145;-76
2023/07/31 11:47:56;;;;;;;11.18;3.75;;;;;;;;;;4990681;28;20040;-75
2023/07/31 11:50:22;;;;;;;11.52;4.07;;;;;;;;;;4989292;28;20119;-75
2023/07/31 11:52:50;;;;;;;17.50;4.57;;;;;;;;;;4993084;28;20089;-75
2023/07/31 11:55:16;;;;;;;9.52;3.50;;;;;;;;;;4979760;28;20046;-75
2023/07/31 11:57:44;;;;;;;14.80;4.78;;;;;;;;;;4976487;28;20047;-75
2023/07/31 12:00:11;;;;;;;7.90;3.63;;;;;;;;;;4979883;28;20058;-76
2023/07/31 12:02:39;;;;;;;12.07;3.88;;;;;;;;;;4992253;28;20089;-75
2023/07/31 12:05:05;;;;;;;9.27;3.47;;;;;;;;;;4990053;28;20050;-75
2023/07/31 12:07:47;;;;;;;11.85;3.80;;;;;;;;;;4993235;28;20129;-75
2023/07/31 12:10:27;;;;;;;12.00;3.55;;;;;;;;;;4993555;28;20096;-75
2023/07/31 12:13:00;;;;;;;12.00;3.83;;;;;;;;;;4984269;28;20582;-75
2023/07/31 12:15:33;;;;;;;11.85;3.83;;;;;;;;;;4976953;28;20996;-75
2023/07/31 12:17:59;;;;;;;11.18;3.30;;;;;;;;;;4991765;28;20129;-75
2023/07/31 12:20:26;;;;;;;13.15;4.05;;;;;;;;;;4991173;28;20048;-75
2023/07/31 12:22:52;;;;;;;19.02;5.38;;;;;;;;;;4969979;28;20042;-74
2023/07/31 12:25:19;;;;;;;18.38;4.10;;;;;;;;;;4985859;28;20101;-75
2023/07/31 12:27:45;;;;;;;15.90;4.22;;;;;;;;;;4976376;28;20045;-75
2023/07/31 12:30:47;;;;;;;12.27;3.95;;;;;;;;;;5009327;28;20045;-75
2023/07/31 12:33:16;;;;;;;11.88;3.78;;;;;;;;;;4933841;29;20094;-75
2023/07/31 12:35:44;;;;;;;14.05;4.30;;;;;;;;;;4997899;28;20455;-75
2023/07/31 12:38:10;;;;;;;10.75;3.83;;;;;;;;;;5009924;28;20112;-74
2023/07/31 12:40:38;;;;;;;9.35;3.97;;;;;;;;;;5007283;28;20053;-75
2023/07/31 12:43:05;;;;;;;14.27;4.00;;;;;;;;;;5010050;28;20050;-75
2023/07/31 12:45:31;;;;;;;11.57;3.55;;;;;;;;;;5008517;28;20053;-75
2023/07/31 12:47:58;;;;;;;12.70;3.80;;;;;;;;;;5006352;28;20054;-75
2023/07/31 12:50:25;;;;;;;9.15;3.58;;;;;;;;;;5010371;28;20037;-75
2023/07/31 12:52:51;;;;;;;9.85;3.50;;;;;;;;;;5011107;28;20061;-75
2023/07/31 12:55:18;;;;;;;8.82;4.07;;;;;;;;;;5009054;28;20627;-75
2023/07/31 12:57:44;;;;;;;7.75;3.75;;;;;;;;;;5008184;28;20498;-75
2023/07/31 13:00:11;;;;;;;11.65;4.05;;;;;;;;;;5009024;28;20057;-75
2023/07/31 13:02:37;;;;;;;12.57;3.90;;;;;;;;;;5008028;28;20520;-75
2023/07/31 13:05:03;;;;;;;9.65;4.25;;;;;;;;;;5010972;28;20521;-75
2023/07/31 13:07:29;;;;;;;9.15;3.55;;;;;;;;;;5026366;28;20144;-75
2023/07/31 13:09:55;;;;;;;11.73;4.20;;;;;;;;;;5009949;28;20815;-76
2023/07/31 13:12:21;;;;;;;9.60;3.80;;;;;;;;;;5011194;28;20605;-75
2023/07/31 13:14:47;;;;;;;10.57;3.83;;;;;;;;;;5003860;28;20050;-75
2023/07/31 13:17:13;;;;;;;10.35;4.00;;;;;;;;;;5006529;28;20042;-75
2023/07/31 13:19:39;;;;;;;8.65;3.50;;;;;;;;;;5008688;28;20797;-75
2023/07/31 13:22:05;;;;;;;14.40;4.10;;;;;;;;;;5007749;28;20571;-75
2023/07/31 13:24:31;;;;;;;14.85;4.38;;;;;;;;;;5008161;28;20403;-75
2023/07/31 13:26:57;;;;;;;11.80;4.53;;;;;;;;;;5001505;28;20046;-74
2023/07/31 13:29:24;;;;;;;10.93;4.30;;;;;;;;;;5010648;28;20046;-75
2023/07/31 13:31:50;;;;;;;15.57;4.60;;;;;;;;;;5011068;28;20050;-75
2023/07/31 13:34:16;;;;;;;15.98;4.57;;;;;;;;;;5012020;28;20073;-75
2023/07/31 13:36:42;;;;;;;15.73;5.00;;;;;;;;;;5006251;28;20061;-75
2023/07/31 13:39:08;;;;;;;12.40;6.07;;;;;;;;;;5007164;28;20049;-75
2023/07/31 13:41:34;;;;;;;15.65;5.00;;;;;;;;;;4992926;28;20104;-75
2023/07/31 13:44:00;;;;;;;10.88;4.10;;;;;;;;;;5009988;28;20042;-75
2023/07/31 13:46:26;;;;;;;12.82;4.38;;;;;;;;;;5012423;28;20050;-75
2023/07/31 13:48:55;;;;;;;14.05;4.47;;;;;;;;;;5011201;28;20653;-75
2023/07/31 13:51:22;;;;;;;9.95;4.20;;;;;;;;;;5011418;28;20096;-75
2023/07/31 13:53:48;;;;;;;10.27;4.47;;;;;;;;;;5010200;28;20033;-75
2023/07/31 13:56:14;;;;;;;16.75;4.60;;;;;;;;;;5007816;28;20050;-75
2023/07/31 13:58:40;;;;;;;13.85;5.03;;;;;;;;;;5009693;28;20052;-75
2023/07/31 14:01:06;;;;;;;11.18;4.47;;;;;;;;;;5002960;28;20046;-75
2023/07/31 14:03:32;;;;;;;14.45;4.45;;;;;;;;;;5010979;28;20049;-75
2023/07/31 14:05:58;;;;;;;10.90;3.90;;;;;;;;;;5009183;28;20505;-74
2023/07/31 14:08:25;;;;;;;15.93;4.25;;;;;;;;;;4998917;28;20128;-75
2023/07/31 14:10:51;;;;;;;15.90;4.72;;;;;;;;;;5008197;28;20057;-75
2023/07/31 14:13:17;;;;;;;13.02;4.13;;;;;;;;;;5003433;28;20133;-75
2023/07/31 14:15:43;;;;;;;14.40;4.20;;;;;;;;;;5011467;28;20077;-74
2023/07/31 14:18:09;;;;;;;10.13;4.28;;;;;;;;;;5007577;28;20101;-75
2023/07/31 14:20:35;;;;;;;12.57;3.88;;;;;;;;;;5005572;28;20493;-74
2023/07/31 14:23:02;;;;;;;11.13;3.72;;;;;;;;;;5011673;28;20038;-74
2023/07/31 14:25:28;;;;;;;15.65;4.22;;;;;;;;;;5006963;28;20050;-74
2023/07/31 14:27:54;;;;;;;14.20;4.28;;;;;;;;;;5009086;28;20050;-73
2023/07/31 14:30:21;;;;;;;15.32;3.92;;;;;;;;;;5008954;28;20053;-75
2023/07/31 14:32:47;;;;;;;11.60;4.22;;;;;;;;;;5005173;28;20099;-76
2023/07/31 14:35:16;;;;;;;12.40;4.70;;;;;;;;;;5009823;28;20049;-75
2023/07/31 14:37:43;;;;;;;11.65;3.97;;;;;;;;;;5007360;28;20046;-75